Time;durP1;ratioP1;P1;durP2;ratioP2;P2;SDS_P1;SDS_P2;PMS_P1;PMS_P2;Temp;Humidity;BMP_temperature;BMP_pressure;BME280_temperature;BME280_humidity;BME280_pressure;Samples;Min_cycle;Max_cycle;Signal;HPM_P1;HPM_P2
2023/12/04 07:59:31;;;;;;;19.77;12.60;;;0.60;99.90;;;;;;5147696;27;20288;-67
2023/12/04 08:02:00;;;;;;;14.20;9.30;;;0.80;99.90;;;;;;5147694;27;20280;-66
2023/12/04 08:04:33;;;;;;;15.20;11.10;;;0.30;99.90;;;;;;5128673;27;20214;-68
2023/12/04 08:07:02;;;;;;;15.55;10.25;;;0.10;99.90;;;;;;5146580;27;20289;-67
2023/12/04 08:09:31;;;;;;;16.93;11.20;;;0.00;99.90;;;;;;5063013;28;20436;-68
2023/12/04 08:12:01;;;;;;;17.47;11.13;;;0.00;99.90;;;;;;5063553;28;20356;-66
2023/12/04 08:14:32;;;;;;;16.10;10.97;;;0.00;99.90;;;;;;5063550;28;20679;-67
2023/12/04 08:17:01;;;;;;;13.80;10.90;;;0.20;99.90;;;;;;5063088;28;20228;-66
2023/12/04 08:19:30;;;;;;;17.30;12.03;;;0.10;99.90;;;;;;5063625;28;20211;-67
2023/12/04 08:21:59;;;;;;;15.00;11.03;;;0.20;99.90;;;;;;5063411;28;20204;-67
2023/12/04 08:24:31;;;;;;;16.03;11.00;;;0.40;99.90;;;;;;5063407;28;20307;-66
2023/12/04 08:27:00;;;;;;;17.73;11.37;;;0.60;99.90;;;;;;5078006;27;20211;-66
2023/12/04 08:29:29;;;;;;;19.10;13.20;;;0.70;99.90;;;;;;5147351;27;20306;-67
2023/12/04 08:31:59;;;;;;;20.80;13.13;;;0.80;99.90;;;;;;5147585;27;20213;-66
2023/12/04 08:34:28;;;;;;;17.90;11.90;;;0.60;99.90;;;;;;5146347;27;20205;-66
2023/12/04 08:36:57;;;;;;;20.70;14.03;;;0.50;99.90;;;;;;5136224;27;20263;-66
2023/12/04 08:39:26;;;;;;;20.23;12.60;;;0.50;99.90;;;;;;5128600;27;20691;-67
2023/12/04 08:41:56;;;;;;;21.20;13.20;;;0.30;99.90;;;;;;5147061;27;20190;-66
2023/12/04 08:44:29;;;;;;;18.20;12.80;;;0.10;99.90;;;;;;5147824;27;20267;-67
2023/12/04 08:46:59;;;;;;;23.23;13.50;;;0.00;99.90;;;;;;5147072;27;20195;-66
2023/12/04 08:49:28;;;;;;;19.67;13.90;;;-0.20;99.90;;;;;;5147068;27;20782;-66
2023/12/04 08:52:03;;;;;;;18.10;12.37;;;-0.20;99.90;;;;;;5146844;27;20239;-66
2023/12/04 08:54:33;;;;;;;21.93;12.67;;;-0.20;99.90;;;;;;5146876;27;20186;-66
2023/12/04 08:57:02;;;;;;;19.63;13.70;;;-0.30;99.90;;;;;;5127141;27;20198;-68
2023/12/04 08:59:33;;;;;;;23.43;14.57;;;-0.20;99.90;;;;;;5146654;27;20198;-67
2023/12/04 09:02:04;;;;;;;22.37;14.20;;;-0.20;99.90;;;;;;5146703;27;20190;-67
2023/12/04 09:04:33;;;;;;;21.07;14.27;;;-0.30;99.90;;;;;;5128305;27;20919;-67
2023/12/04 09:07:05;;;;;;;23.73;15.13;;;-0.20;99.90;;;;;;5146543;27;20201;-67
2023/12/04 09:09:36;;;;;;;21.17;14.07;;;-0.30;99.90;;;;;;5139900;27;20263;-67
2023/12/04 09:12:07;;;;;;;21.93;13.83;;;-0.30;99.90;;;;;;5132549;27;20600;-66
2023/12/04 09:14:36;;;;;;;19.00;14.20;;;-0.20;99.90;;;;;;5132891;27;20197;-66
2023/12/04 09:17:09;;;;;;;18.93;12.93;;;-0.20;99.90;;;;;;5132871;27;20218;-67
2023/12/04 09:19:38;;;;;;;22.43;14.40;;;-0.20;99.90;;;;;;5132691;27;20191;-67
2023/12/04 09:22:09;;;;;;;22.30;15.13;;;-0.10;99.90;;;;;;5132550;27;20202;-67
2023/12/04 09:24:44;;;;;;;22.17;15.00;;;-0.10;99.90;;;;;;5132428;27;20198;-66
2023/12/04 09:27:13;;;;;;;22.73;14.83;;;-0.10;99.90;;;;;;5132197;27;20194;-67
2023/12/04 09:29:43;;;;;;;21.00;14.43;;;-0.10;99.90;;;;;;5132558;27;20699;-68
2023/12/04 09:32:14;;;;;;;20.70;14.10;;;0.00;99.90;;;;;;5132230;27;20191;-67
2023/12/04 09:34:43;;;;;;;21.80;14.60;;;0.00;99.90;;;;;;5132356;27;20195;-67
2023/12/04 09:37:14;;;;;;;22.80;13.33;;;0.00;99.90;;;;;;5132159;27;20721;-70
2023/12/04 09:39:43;;;;;;;22.37;14.50;;;-0.10;99.90;;;;;;5132243;27;20195;-67
2023/12/04 09:42:13;;;;;;;23.00;14.30;;;0.20;99.90;;;;;;5132014;27;20210;-79
2023/12/04 09:44:43;;;;;;;23.37;14.10;;;0.40;99.90;;;;;;5132105;27;20225;-66
2023/12/04 09:47:13;;;;;;;18.70;13.33;;;0.50;99.90;;;;;;5131861;27;20195;-67
2023/12/04 09:49:46;;;;;;;24.60;14.60;;;0.60;99.90;;;;;;5131878;27;20206;-67
2023/12/04 09:52:19;;;;;;;21.47;13.27;;;0.80;99.90;;;;;;5130176;27;21040;-67
2023/12/04 09:54:51;;;;;;;22.50;14.73;;;1.10;99.90;;;;;;5111183;28;20196;-67
2023/12/04 09:57:22;;;;;;;17.97;12.57;;;1.40;99.90;;;;;;5126365;27;20306;-67
2023/12/04 09:59:53;;;;;;;20.70;14.30;;;1.40;99.90;;;;;;5131820;27;20248;-67
2023/12/04 10:02:23;;;;;;;20.90;14.13;;;1.50;99.90;;;;;;5131678;27;20228;-67
2023/12/04 10:04:55;;;;;;;30.50;18.17;;;1.60;99.90;;;;;;5131543;27;20187;-67
2023/12/04 10:07:26;;;;;;;24.20;15.30;;;1.70;99.90;;;;;;5113151;27;21073;-67
2023/12/04 10:09:56;;;;;;;18.97;12.70;;;1.70;99.90;;;;;;5131422;27;20305;-67
2023/12/04 10:12:29;;;;;;;18.00;12.77;;;1.50;99.90;;;;;;5131434;27;20549;-67
2023/12/04 10:15:07;;;;;;;36.93;21.70;;;1.40;99.90;;;;;;5131483;27;20207;-67
2023/12/04 10:17:38;;;;;;;23.13;14.77;;;1.10;99.90;;;;;;5112699;27;20205;-66
2023/12/04 10:20:12;;;;;;;21.93;14.23;;;1.20;99.90;;;;;;5112772;27;20203;-67
2023/12/04 10:22:53;;;;;;;20.17;13.10;;;1.40;99.90;;;;;;5130448;27;20268;-67
2023/12/04 10:25:23;;;;;;;20.97;15.17;;;1.50;99.90;;;;;;5131288;27;20191;-67
2023/12/04 10:27:53;;;;;;;21.77;14.47;;;1.40;99.90;;;;;;5131045;27;20197;-66
2023/12/04 10:30:24;;;;;;;21.17;13.97;;;1.50;99.90;;;;;;5131178;27;20218;-67
2023/12/04 10:33:00;;;;;;;20.37;13.43;;;1.50;99.90;;;;;;5112637;27;20191;-66
2023/12/04 10:35:36;;;;;;;18.57;12.70;;;1.50;99.90;;;;;;5131407;27;21024;-66
2023/12/04 10:38:06;;;;;;;20.47;13.67;;;1.60;99.90;;;;;;5131142;27;20239;-67
2023/12/04 10:40:38;;;;;;;20.73;14.20;;;1.70;99.90;;;;;;5131207;27;20195;-67
2023/12/04 10:43:17;;;;;;;22.23;14.87;;;1.60;99.90;;;;;;5131122;27;20649;-66
2023/12/04 10:45:48;;;;;;;20.87;13.93;;;1.60;99.90;;;;;;5113400;27;20207;-66
2023/12/04 10:48:23;;;;;;;20.83;14.07;;;1.70;99.90;;;;;;5110290;28;20284;-66
2023/12/04 10:50:53;;;;;;;22.83;15.93;;;1.80;99.90;;;;;;5110195;28;20230;-67
2023/12/04 10:53:22;;;;;;;21.57;15.13;;;1.80;99.90;;;;;;5127327;27;20247;-67
2023/12/04 10:55:56;;;;;;;24.03;15.57;;;2.00;99.90;;;;;;5130804;27;20657;-66
2023/12/04 10:58:27;;;;;;;23.57;16.00;;;2.10;99.90;;;;;;5115596;27;20589;-67
2023/12/04 11:01:01;;;;;;;25.13;15.33;;;2.30;99.90;;;;;;5110029;28;20315;-66
2023/12/04 11:03:42;;;;;;;25.57;17.13;;;2.40;99.90;;;;;;5110051;28;20197;-66
2023/12/04 11:06:13;;;;;;;25.27;16.00;;;2.50;99.90;;;;;;5110060;28;20271;-67
2023/12/04 11:08:44;;;;;;;22.80;15.57;;;2.50;99.90;;;;;;5109855;28;20192;-66
2023/12/04 11:11:16;;;;;;;21.93;15.63;;;2.40;99.90;;;;;;5109869;28;20219;-66
2023/12/04 11:13:51;;;;;;;25.03;15.90;;;2.20;99.90;;;;;;5109672;28;20195;-66
2023/12/04 11:16:26;;;;;;;23.67;16.53;;;2.30;99.90;;;;;;5110484;28;20853;-66
2023/12/04 11:19:04;;;;;;;19.63;14.80;;;2.30;99.90;;;;;;5118135;27;20195;-68
2023/12/04 11:21:35;;;;;;;23.53;14.63;;;2.30;99.90;;;;;;5130073;27;20187;-66
2023/12/04 11:24:05;;;;;;;21.37;14.60;;;2.30;99.90;;;;;;5123597;27;20671;-66
2023/12/04 11:26:37;;;;;;;25.77;14.97;;;2.40;99.90;;;;;;5150863;27;20191;-66
2023/12/04 11:29:06;;;;;;;21.30;14.40;;;2.60;99.90;;;;;;5125055;27;20287;-65
2023/12/04 11:31:36;;;;;;;24.27;15.10;;;2.80;99.90;;;;;;5123677;27;20228;-66
2023/12/04 11:34:09;;;;;;;26.53;14.10;;;2.60;99.90;;;;;;5110193;28;20189;-66
2023/12/04 11:36:41;;;;;;;21.13;13.77;;;2.40;99.90;;;;;;5112966;27;20200;-65
2023/12/04 11:39:11;;;;;;;23.17;14.57;;;2.70;99.90;;;;;;5114742;27;20958;-65
2023/12/04 11:41:41;;;;;;;20.83;13.47;;;2.80;99.90;;;;;;5150747;27;20203;-66
2023/12/04 11:44:15;;;;;;;20.43;13.87;;;2.70;99.90;;;;;;5150480;27;20244;-65
2023/12/04 11:46:57;;;;;;;21.53;13.97;;;2.70;99.90;;;;;;5151104;27;20196;-66
2023/12/04 11:49:31;;;;;;;22.63;15.23;;;2.70;99.90;;;;;;5150921;27;20218;-66
2023/12/04 11:52:01;;;;;;;20.60;14.07;;;2.10;99.90;;;;;;5150767;27;20649;-65
2023/12/04 11:54:30;;;;;;;23.53;14.77;;;1.80;99.90;;;;;;5150786;27;20510;-66
2023/12/04 11:56:59;;;;;;;20.83;12.90;;;1.80;99.90;;;;;;5150638;27;20278;-66
2023/12/04 11:59:30;;;;;;;22.87;14.30;;;1.70;99.90;;;;;;5107901;28;20206;-67
2023/12/04 12:01:59;;;;;;;25.87;15.00;;;1.70;99.90;;;;;;5108004;28;20199;-66
2023/12/04 12:04:30;;;;;;;19.97;14.23;;;1.60;99.90;;;;;;5109307;28;20196;-66
2023/12/04 12:07:02;;;;;;;19.50;13.27;;;1.40;99.90;;;;;;5103331;28;20225;-65
2023/12/04 12:09:32;;;;;;;19.27;13.47;;;1.20;99.90;;;;;;5088387;28;20261;-66
2023/12/04 12:12:01;;;;;;;18.47;13.67;;;1.20;99.90;;;;;;5085551;28;20602;-65
2023/12/04 12:14:31;;;;;;;22.50;14.30;;;1.20;99.90;;;;;;5088665;28;20255;-65
2023/12/04 12:17:01;;;;;;;20.73;13.83;;;1.10;99.90;;;;;;5069370;28;20202;-66
2023/12/04 12:19:32;;;;;;;26.87;15.93;;;1.10;99.90;;;;;;5068801;28;20203;-66
2023/12/04 12:22:01;;;;;;;21.53;14.43;;;1.20;99.90;;;;;;5071651;28;20280;-66
2023/12/04 12:24:33;;;;;;;23.63;14.17;;;1.30;99.90;;;;;;5078368;28;20205;-65
2023/12/04 12:27:02;;;;;;;23.83;16.13;;;1.40;99.90;;;;;;5068131;28;20190;-66
2023/12/04 12:29:31;;;;;;;35.13;20.27;;;1.60;99.90;;;;;;5068544;28;20192;-66
2023/12/04 12:32:03;;;;;;;31.07;18.60;;;1.80;99.90;;;;;;5069076;28;20197;-66
2023/12/04 12:34:36;;;;;;;31.17;19.10;;;2.00;99.90;;;;;;5077524;28;20211;-66
2023/12/04 12:37:06;;;;;;;34.40;21.03;;;2.10;99.90;;;;;;5075266;28;20203;-66
2023/12/04 12:39:34;;;;;;;39.73;22.23;;;2.10;99.90;;;;;;5088940;28;20193;-65
2023/12/04 12:42:07;;;;;;;30.90;21.23;;;2.20;99.90;;;;;;5088324;28;20193;-65
2023/12/04 12:44:42;;;;;;;31.37;19.50;;;2.00;99.90;;;;;;5089989;28;20206;-65
2023/12/04 12:47:11;;;;;;;28.03;18.67;;;1.90;99.90;;;;;;5092787;28;20257;-66
2023/12/04 12:49:45;;;;;;;29.97;19.77;;;2.10;99.90;;;;;;5092655;28;20663;-67
2023/12/04 12:52:15;;;;;;;31.33;18.43;;;2.30;99.90;;;;;;5092039;28;20202;-67
2023/12/04 12:54:45;;;;;;;31.77;17.00;;;2.50;99.90;;;;;;5092731;28;20253;-67
2023/12/04 12:57:14;;;;;;;32.60;18.37;;;2.30;99.90;;;;;;5095188;27;20219;-66
2023/12/04 12:59:44;;;;;;;22.53;14.83;;;2.40;99.90;;;;;;5114585;27;20208;-67
2023/12/04 13:02:13;;;;;;;21.90;14.73;;;2.50;99.90;;;;;;5133161;27;20197;-66
2023/12/04 13:04:46;;;;;;;22.37;13.83;;;2.40;99.90;;;;;;5133115;27;20190;-66
2023/12/04 13:07:18;;;;;;;23.97;14.53;;;2.40;99.90;;;;;;5127638;27;20692;-67
2023/12/04 13:09:48;;;;;;;20.80;13.40;;;2.30;99.90;;;;;;5116624;27;20588;-66
2023/12/04 13:12:16;;;;;;;19.30;13.37;;;2.40;99.90;;;;;;5123620;27;20209;-67
2023/12/04 13:14:45;;;;;;;20.40;13.37;;;2.40;99.90;;;;;;5132930;27;20560;-67
2023/12/04 13:17:14;;;;;;;22.57;14.83;;;2.30;99.90;;;;;;5132808;27;20193;-66
2023/12/04 13:19:46;;;;;;;20.90;13.80;;;2.20;99.90;;;;;;5132931;27;20213;-66
2023/12/04 13:22:15;;;;;;;19.70;12.87;;;2.20;99.90;;;;;;5132551;27;20207;-65
2023/12/04 13:24:46;;;;;;;26.03;16.17;;;1.90;99.90;;;;;;5132352;27;20195;-67
2023/12/04 13:27:18;;;;;;;23.80;13.70;;;1.70;99.90;;;;;;5129306;27;20196;-66
2023/12/04 13:29:49;;;;;;;20.77;13.30;;;1.80;99.90;;;;;;5112362;28;20191;-66
2023/12/04 13:32:18;;;;;;;62.47;31.30;;;1.60;99.90;;;;;;5110437;28;20207;-66
2023/12/04 13:34:48;;;;;;;22.33;14.57;;;1.50;99.90;;;;;;5091863;28;20854;-67
2023/12/04 13:37:17;;;;;;;22.00;14.23;;;1.70;99.90;;;;;;5091088;28;20196;-67
2023/12/04 13:39:51;;;;;;;25.73;15.07;;;1.80;99.90;;;;;;5106467;28;20207;-67
2023/12/04 13:45:09;;;;;;;26.80;16.27;;;1.70;99.90;;;;;;5107545;28;20282;-67
2023/12/04 13:47:38;;;;;;;24.67;15.67;;;1.70;99.90;;;;;;5091336;28;20215;-66
2023/12/04 13:50:10;;;;;;;28.13;16.30;;;1.60;99.90;;;;;;5090737;28;20802;-66
2023/12/04 13:52:42;;;;;;;25.07;16.53;;;1.60;99.90;;;;;;5089484;28;20292;-66
2023/12/04 13:55:19;;;;;;;27.33;16.23;;;1.70;99.90;;;;;;5089041;28;20212;-66
2023/12/04 13:58:09;;;;;;;25.33;17.23;;;1.80;99.90;;;;;;5106063;28;20225;-66
2023/12/04 14:00:43;;;;;;;26.73;16.73;;;1.80;99.90;;;;;;5096719;28;20291;-67
2023/12/04 14:03:12;;;;;;;27.67;17.83;;;1.80;99.90;;;;;;5110776;28;20199;-67
2023/12/04 14:05:43;;;;;;;29.63;17.20;;;1.90;99.90;;;;;;5096643;28;20220;-66
2023/12/04 14:08:15;;;;;;;28.20;17.37;;;1.80;99.90;;;;;;5090059;28;20226;-66
2023/12/04 14:10:46;;;;;;;34.93;22.03;;;1.90;99.90;;;;;;5090360;28;20208;-66
2023/12/04 14:13:18;;;;;;;31.30;19.53;;;1.80;99.90;;;;;;5107949;28;20285;-67
2023/12/04 14:15:47;;;;;;;31.97;20.30;;;1.70;99.90;;;;;;5110340;28;20299;-67
2023/12/04 14:18:16;;;;;;;27.70;16.97;;;1.60;99.90;;;;;;5110457;28;20258;-66
2023/12/04 14:20:47;;;;;;;30.97;19.00;;;1.60;99.90;;;;;;5110594;28;20189;-66
2023/12/04 14:23:18;;;;;;;32.77;17.87;;;1.70;99.90;;;;;;5110483;28;20721;-67
2023/12/04 14:25:50;;;;;;;27.87;16.97;;;1.70;99.90;;;;;;5094435;28;20287;-65
2023/12/04 14:28:20;;;;;;;27.10;16.77;;;1.70;99.90;;;;;;5088424;28;20615;-66
2023/12/04 14:30:56;;;;;;;28.23;17.53;;;1.60;99.90;;;;;;5089379;28;20338;-66
2023/12/04 14:33:28;;;;;;;23.77;15.17;;;1.60;99.90;;;;;;5089835;28;20306;-67
2023/12/04 14:36:00;;;;;;;19.17;13.57;;;1.70;99.90;;;;;;5105209;28;20275;-67
2023/12/04 14:38:29;;;;;;;25.87;16.67;;;1.70;99.90;;;;;;5089686;28;20196;-67
2023/12/04 14:40:59;;;;;;;25.80;17.53;;;1.50;99.90;;;;;;5089486;28;20208;-68
2023/12/04 14:43:28;;;;;;;27.07;16.53;;;1.30;99.90;;;;;;5089665;28;20196;-67
2023/12/04 14:45:58;;;;;;;27.50;16.70;;;1.30;99.90;;;;;;5104965;28;20204;-67
2023/12/04 14:48:27;;;;;;;29.67;16.97;;;1.40;99.90;;;;;;5110022;28;20238;-67
2023/12/04 14:50:56;;;;;;;35.00;19.70;;;1.40;99.90;;;;;;5109776;28;20226;-67
2023/12/04 14:53:43;;;;;;;29.83;18.27;;;1.20;99.90;;;;;;5110068;28;20662;-67
2023/12/04 15:05:31;;;;;;;22.93;14.07;;;1.00;99.90;;;;;;5129423;27;20271;-67
2023/12/04 15:11:02;;;;;;;22.53;14.57;;;1.00;99.90;;;;;;5009830;28;20318;-66
2023/12/04 15:13:44;;;;;;;21.63;13.47;;;0.80;99.90;;;;;;5025768;28;20320;-66
2023/12/04 15:16:33;;;;;;;22.77;14.03;;;0.70;99.90;;;;;;5023953;28;20218;-66
2023/12/04 15:19:35;;;;;;;18.63;12.57;;;0.90;99.90;;;;;;5026136;28;20203;-67
2023/12/04 15:22:18;;;;;;;25.20;14.07;;;1.00;99.90;;;;;;5026181;28;20213;-67
2023/12/04 15:24:59;;;;;;;23.10;14.33;;;0.90;99.90;;;;;;5009578;28;20626;-66
2023/12/04 15:27:28;;;;;;;27.87;15.90;;;0.80;99.90;;;;;;5025864;28;20241;-67
2023/12/04 15:29:57;;;;;;;27.20;15.40;;;0.80;99.90;;;;;;5024749;28;20211;-67
2023/12/04 15:32:25;;;;;;;27.30;15.87;;;0.80;99.90;;;;;;5008779;28;20316;-67
2023/12/04 15:34:54;;;;;;;27.23;16.60;;;0.70;99.90;;;;;;5025590;28;20213;-66
2023/12/04 15:37:23;;;;;;;28.20;17.13;;;0.90;99.90;;;;;;5032677;28;20293;-67
2023/12/04 15:39:53;;;;;;;33.60;19.10;;;0.90;99.90;;;;;;5042725;28;20241;-67
2023/12/04 15:42:20;;;;;;;34.23;21.50;;;1.00;99.90;;;;;;5017661;28;20209;-67
2023/12/04 15:44:51;;;;;;;38.30;20.93;;;1.10;99.90;;;;;;5040630;28;21088;-66
2023/12/04 15:47:20;;;;;;;31.93;20.07;;;1.20;99.90;;;;;;5023665;28;20260;-67
2023/12/04 15:49:49;;;;;;;35.40;19.90;;;1.10;99.90;;;;;;5065289;28;20209;-66
2023/12/04 15:52:18;;;;;;;35.50;21.33;;;1.20;99.90;;;;;;5083698;28;20236;-66
2023/12/04 15:54:47;;;;;;;36.43;20.87;;;1.20;99.90;;;;;;5085157;28;20295;-67
2023/12/04 15:57:16;;;;;;;31.23;18.97;;;1.20;99.90;;;;;;5085131;28;20200;-66
2023/12/04 15:59:45;;;;;;;35.30;19.83;;;1.10;99.90;;;;;;5084580;28;20209;-66
2023/12/04 16:02:16;;;;;;;36.80;20.97;;;1.00;99.90;;;;;;5068060;28;20941;-66
2023/12/04 16:04:47;;;;;;;27.83;17.53;;;0.90;99.90;;;;;;5071759;28;20664;-67
2023/12/04 16:07:16;;;;;;;29.50;16.83;;;1.00;99.90;;;;;;5107000;28;20196;-67
2023/12/04 16:09:47;;;;;;;29.20;16.23;;;1.10;99.90;;;;;;5064698;28;20740;-66
2023/12/04 16:12:16;;;;;;;27.93;16.07;;;1.00;99.90;;;;;;5065051;28;20256;-67
2023/12/04 16:14:45;;;;;;;26.53;16.30;;;0.90;99.90;;;;;;5064334;28;20205;-67
2023/12/04 16:17:19;;;;;;;27.37;16.50;;;0.70;99.90;;;;;;5065063;28;20688;-68
2023/12/04 16:19:47;;;;;;;28.77;16.37;;;0.50;99.90;;;;;;5066584;28;20201;-67
2023/12/04 16:22:16;;;;;;;26.30;15.30;;;0.60;99.90;;;;;;5068851;28;20204;-67
2023/12/04 16:24:45;;;;;;;23.30;15.17;;;0.60;99.90;;;;;;5068793;28;20205;-66
2023/12/04 16:27:14;;;;;;;33.37;16.77;;;0.70;99.90;;;;;;5075086;28;20207;-66
2023/12/04 16:29:45;;;;;;;30.03;17.43;;;0.90;99.90;;;;;;5111908;28;20192;-67
2023/12/04 16:32:16;;;;;;;30.17;17.50;;;0.80;99.90;;;;;;5112090;28;20218;-66
2023/12/04 16:34:45;;;;;;;29.67;17.60;;;0.90;99.90;;;;;;5110746;28;20222;-66
2023/12/04 16:37:14;;;;;;;31.53;17.37;;;0.90;99.90;;;;;;5109556;28;20215;-67
2023/12/04 16:39:43;;;;;;;33.83;17.63;;;1.00;99.90;;;;;;5096502;28;20291;-66
2023/12/04 16:42:12;;;;;;;24.67;16.27;;;0.80;99.90;;;;;;5111140;28;20205;-66
2023/12/04 16:44:41;;;;;;;31.20;17.70;;;0.60;99.90;;;;;;5091351;28;20275;-66
2023/12/04 16:47:10;;;;;;;32.17;16.57;;;0.60;99.90;;;;;;5089527;28;20711;-66
2023/12/04 16:49:40;;;;;;;28.17;15.93;;;0.60;99.90;;;;;;5091412;28;20205;-67
2023/12/04 16:52:14;;;;;;;24.57;16.07;;;0.50;99.90;;;;;;5091260;28;20235;-66
2023/12/04 16:54:44;;;;;;;29.13;17.03;;;0.50;99.90;;;;;;5091556;28;20282;-66
2023/12/04 16:57:13;;;;;;;32.67;17.80;;;0.30;99.90;;;;;;5105190;28;20196;-66
2023/12/04 16:59:42;;;;;;;28.47;15.87;;;0.20;99.90;;;;;;5096389;28;20232;-66
2023/12/04 17:02:11;;;;;;;27.47;17.00;;;0.40;99.90;;;;;;5111314;28;20191;-66
2023/12/04 17:04:41;;;;;;;28.87;15.60;;;0.50;99.90;;;;;;5110456;28;20203;-67
2023/12/04 17:07:12;;;;;;;28.27;17.57;;;0.60;99.90;;;;;;5091034;28;20563;-67
2023/12/04 17:09:43;;;;;;;31.60;18.63;;;0.30;99.90;;;;;;5091357;28;20501;-67
2023/12/04 17:12:13;;;;;;;33.53;18.17;;;0.30;99.90;;;;;;5101949;28;20731;-67
2023/12/04 17:14:43;;;;;;;26.70;16.43;;;0.30;99.90;;;;;;5090998;28;20207;-67
2023/12/04 17:17:12;;;;;;;34.57;19.10;;;0.10;99.90;;;;;;5103133;28;20227;-66
2023/12/04 17:19:42;;;;;;;36.70;19.43;;;0.00;99.90;;;;;;5103021;27;20200;-66
2023/12/04 17:22:12;;;;;;;32.90;17.47;;;0.00;99.90;;;;;;5100725;27;20498;-66
2023/12/04 17:24:41;;;;;;;32.67;18.73;;;0.20;99.90;;;;;;5103480;28;20296;-66
2023/12/04 17:27:10;;;;;;;36.33;19.57;;;0.10;99.90;;;;;;5111216;28;20200;-65
2023/12/04 17:29:40;;;;;;;31.73;18.07;;;0.10;99.90;;;;;;5102063;28;20291;-66
2023/12/04 17:32:10;;;;;;;36.60;18.80;;;0.00;99.90;;;;;;5118377;27;20197;-66
2023/12/04 17:34:39;;;;;;;42.77;22.67;;;-0.10;99.90;;;;;;5131033;27;20613;-66
2023/12/04 17:37:09;;;;;;;37.93;20.23;;;0.00;99.90;;;;;;5131034;27;20237;-66
2023/12/04 17:39:38;;;;;;;43.97;22.43;;;0.10;99.90;;;;;;5118688;27;20196;-66
2023/12/04 17:42:06;;;;;;;44.87;22.37;;;0.10;99.90;;;;;;5095331;28;20707;-68
2023/12/04 17:44:37;;;;;;;42.60;21.50;;;0.20;99.90;;;;;;5101393;28;20328;-67
2023/12/04 17:47:08;;;;;;;42.83;21.87;;;0.30;99.90;;;;;;5110215;28;20191;-67
2023/12/04 17:49:40;;;;;;;40.47;21.07;;;0.40;99.90;;;;;;5110419;28;20264;-66
2023/12/04 17:52:11;;;;;;;44.40;22.37;;;0.20;99.90;;;;;;5110075;28;20198;-67
2023/12/04 17:54:40;;;;;;;47.83;22.70;;;0.10;99.90;;;;;;5104668;28;20200;-67
2023/12/04 17:57:09;;;;;;;48.27;22.83;;;0.20;99.90;;;;;;5099048;28;20225;-67
2023/12/04 17:59:38;;;;;;;45.97;22.20;;;0.20;99.90;;;;;;5101352;27;20228;-67
2023/12/04 18:02:09;;;;;;;39.73;22.13;;;0.20;99.90;;;;;;5096127;28;21000;-67
2023/12/04 18:04:37;;;;;;;45.33;22.97;;;0.00;99.90;;;;;;5090053;28;20215;-67
2023/12/04 18:07:06;;;;;;;44.70;22.33;;;-0.20;99.90;;;;;;5090561;28;20207;-68
2023/12/04 18:09:38;;;;;;;42.00;23.13;;;-0.10;99.90;;;;;;5088441;28;20192;-67
2023/12/04 18:12:08;;;;;;;44.40;23.87;;;0.10;99.90;;;;;;5090008;28;20196;-67
2023/12/04 18:14:37;;;;;;;44.60;24.53;;;0.20;99.90;;;;;;5090134;28;20231;-68
2023/12/04 18:17:06;;;;;;;47.50;25.13;;;0.40;99.90;;;;;;5090078;28;20567;-67
2023/12/04 18:19:35;;;;;;;48.40;23.10;;;0.20;99.90;;;;;;5090077;28;20250;-67
2023/12/04 18:22:04;;;;;;;45.23;24.00;;;-0.20;99.90;;;;;;5090038;28;20241;-68
2023/12/04 18:24:33;;;;;;;40.27;22.47;;;-0.20;99.90;;;;;;5097022;28;20543;-67
2023/12/04 18:27:03;;;;;;;46.20;23.03;;;-0.50;99.90;;;;;;5110632;28;20198;-66
2023/12/04 18:29:33;;;;;;;43.30;21.60;;;-0.50;99.90;;;;;;5110639;28;20312;-67
2023/12/04 18:32:02;;;;;;;38.83;20.33;;;-0.60;99.90;;;;;;5109856;28;20199;-68
2023/12/04 18:34:31;;;;;;;39.17;20.27;;;-0.70;99.90;;;;;;5109490;27;20219;-68
2023/12/04 18:37:06;;;;;;;41.20;20.70;;;-0.40;99.90;;;;;;5110255;27;20298;-67
2023/12/04 18:39:41;;;;;;;37.23;20.60;;;-0.20;99.90;;;;;;5109637;28;20664;-68
2023/12/04 18:42:15;;;;;;;38.77;22.83;;;-0.20;99.90;;;;;;5109009;28;20210;-68
2023/12/04 18:44:44;;;;;;;35.20;18.73;;;-0.10;99.90;;;;;;5109974;28;20194;-68
2023/12/04 18:47:18;;;;;;;36.83;20.60;;;-0.20;99.90;;;;;;5109277;27;20192;-68
2023/12/04 18:49:51;;;;;;;34.83;18.60;;;-0.20;99.90;;;;;;5109855;28;20195;-69
2023/12/04 18:52:22;;;;;;;36.33;19.20;;;0.00;99.90;;;;;;5107885;28;20622;-69
2023/12/04 18:54:51;;;;;;;34.43;18.07;;;0.10;99.90;;;;;;5108214;28;20232;-69
2023/12/04 18:57:22;;;;;;;36.57;19.30;;;-0.10;99.90;;;;;;5109413;28;20188;-69
2023/12/04 18:59:51;;;;;;;36.43;20.07;;;0.00;99.90;;;;;;5109242;28;20202;-69
2023/12/04 19:02:19;;;;;;;36.00;20.47;;;0.00;99.90;;;;;;5108843;28;20223;-68
2023/12/04 19:04:48;;;;;;;38.40;21.03;;;-0.10;99.90;;;;;;5109622;28;20200;-68
2023/12/04 19:07:20;;;;;;;39.80;20.17;;;-0.30;99.90;;;;;;5108744;28;20657;-68
2023/12/04 19:09:49;;;;;;;41.17;20.57;;;-0.50;99.90;;;;;;5109439;28;20200;-69
2023/12/04 19:12:18;;;;;;;42.43;21.97;;;-0.60;99.90;;;;;;5108824;28;20683;-68
2023/12/04 19:14:50;;;;;;;39.37;21.33;;;-0.50;99.90;;;;;;5109104;28;20238;-69
2023/12/04 19:17:20;;;;;;;43.40;21.70;;;-0.30;99.90;;;;;;5108906;28;20310;-68
2023/12/04 19:19:49;;;;;;;46.80;23.60;;;-0.20;99.90;;;;;;5108970;28;20203;-68
2023/12/04 19:22:19;;;;;;;43.03;22.47;;;-0.40;99.90;;;;;;5090216;28;20195;-68
2023/12/04 19:24:48;;;;;;;41.97;23.23;;;-0.40;99.90;;;;;;5108948;28;20192;-68
2023/12/04 19:27:17;;;;;;;41.23;21.97;;;-0.40;99.90;;;;;;5108812;28;20683;-68
2023/12/04 19:29:48;;;;;;;40.50;22.47;;;-0.50;99.90;;;;;;5109021;28;20202;-68
2023/12/04 19:32:17;;;;;;;45.07;25.00;;;-0.60;99.90;;;;;;5108666;28;20272;-69
2023/12/04 19:34:50;;;;;;;38.30;21.33;;;-0.70;99.90;;;;;;5109131;28;20776;-68
2023/12/04 19:37:19;;;;;;;37.83;21.87;;;-0.70;99.90;;;;;;5108584;28;20274;-69
2023/12/04 19:39:48;;;;;;;42.63;22.33;;;-0.80;99.90;;;;;;5108733;28;20206;-69
2023/12/04 19:42:20;;;;;;;42.60;22.33;;;-1.00;99.90;;;;;;5090705;28;20218;-69
2023/12/04 19:44:53;;;;;;;44.60;23.47;;;-0.80;99.90;;;;;;5104298;28;20257;-69
2023/12/04 19:47:24;;;;;;;40.90;22.50;;;-0.80;99.90;;;;;;5102541;27;20695;-68
2023/12/04 19:49:54;;;;;;;42.30;21.70;;;-0.80;99.90;;;;;;5108545;28;20192;-69
2023/12/04 19:52:23;;;;;;;42.73;23.10;;;-1.20;99.90;;;;;;5108238;28;20310;-68
2023/12/04 19:54:52;;;;;;;44.90;22.17;;;-1.00;99.90;;;;;;5090492;28;20227;-68
2023/12/04 19:59:44;;;;;;;50.53;22.93;;;1.10;99.90;;;;;;5147628;27;20281;-68
2023/12/04 20:02:12;;;;;;;34.47;21.57;;;1.90;99.90;;;;;;5147298;27;20209;-66
2023/12/04 20:04:42;;;;;;;39.43;22.77;;;1.20;99.90;;;;;;5144879;27;20201;-60
2023/12/04 20:07:10;;;;;;;40.47;23.13;;;0.80;99.90;;;;;;5141107;27;20300;-67
2023/12/04 20:09:39;;;;;;;39.60;22.23;;;0.50;99.90;;;;;;5147691;27;20972;-66
2023/12/04 20:12:08;;;;;;;37.47;22.63;;;0.30;99.90;;;;;;5147366;27;20213;-67
2023/12/04 20:14:36;;;;;;;36.13;20.77;;;0.10;99.90;;;;;;5147747;27;20186;-61
2023/12/04 20:17:06;;;;;;;38.70;21.27;;;0.00;99.90;;;;;;5147101;27;20198;-66
2023/12/04 20:19:35;;;;;;;38.17;21.47;;;0.00;99.90;;;;;;5147067;27;20301;-59
2023/12/04 20:22:04;;;;;;;37.67;22.00;;;-0.10;99.90;;;;;;5147192;27;20197;-64
2023/12/04 20:24:32;;;;;;;37.60;21.63;;;-0.20;99.90;;;;;;5140177;27;20202;-67
2023/12/04 20:27:00;;;;;;;35.97;21.60;;;-0.30;99.90;;;;;;5131339;27;20199;-67
2023/12/04 20:29:29;;;;;;;40.50;22.43;;;-0.40;99.90;;;;;;5146905;27;20708;-67
2023/12/04 20:31:59;;;;;;;44.57;22.50;;;-0.50;99.90;;;;;;5146571;27;20191;-66
2023/12/04 20:34:29;;;;;;;39.73;23.33;;;-0.50;99.90;;;;;;5146128;27;20247;-66
2023/12/04 20:37:00;;;;;;;38.63;22.47;;;-0.60;99.90;;;;;;5146789;27;20206;-63
2023/12/04 20:39:28;;;;;;;39.00;21.47;;;-0.70;99.90;;;;;;5146473;27;20278;-65
2023/12/04 20:41:57;;;;;;;44.90;23.07;;;-1.00;99.90;;;;;;5146676;27;20187;-64
2023/12/04 20:44:26;;;;;;;37.63;21.47;;;-1.00;99.90;;;;;;5146703;27;20199;-61
2023/12/04 20:46:54;;;;;;;39.93;22.10;;;-1.10;99.90;;;;;;5146692;27;20202;-60
2023/12/04 20:49:24;;;;;;;36.53;22.27;;;-1.20;99.90;;;;;;5146456;27;20217;-67
2023/12/04 20:51:54;;;;;;;37.10;21.23;;;-1.30;99.90;;;;;;5146759;27;20206;-61
2023/12/04 20:54:22;;;;;;;32.00;20.30;;;-1.30;99.90;;;;;;5145778;27;20253;-65
2023/12/04 20:56:50;;;;;;;42.13;20.73;;;-1.30;99.90;;;;;;5138106;27;20285;-66
2023/12/04 20:59:19;;;;;;;35.20;20.13;;;-1.30;99.90;;;;;;5141471;27;20239;-58
2023/12/04 21:01:50;;;;;;;43.97;22.43;;;-1.30;99.90;;;;;;5126145;28;20206;-66
2023/12/04 21:04:18;;;;;;;38.53;21.57;;;-1.50;99.90;;;;;;5125946;28;20199;-67
2023/12/04 21:06:47;;;;;;;44.63;23.23;;;-1.70;99.90;;;;;;5112555;28;20778;-67
2023/12/04 21:09:17;;;;;;;46.00;22.27;;;-1.90;99.90;;;;;;5121544;28;20270;-63